Milford, Utah
Current Conditions -  °F | °C
As of 2:52 AM on Thursday 23 Oct 2014 (Local Time) from KMLF Reporting Station
Clear Clear  
Wind Chill:   Ceiling: Unl
Heat Index:   Visibility: 10mi
Dew Point: -3°   Wind: 10mph
Humidity: 60%   Direction: 210°SSW
Pressure: 30.19"   Gusts: NA
Location:  38.4°N, 113.01°W
Report Text: KMLF 230852Z AUTO 21009KT 10SM CLR 04/M03 A3019 RMK AO2 SLP193 T00441028 53002 TSNO
Loading
Personal Weather Stations






























Interactive Weather Map
Tropical Storm Tracking
New forecast layout! Learn more

10-Day Weather Forecast

Advertisements
Track Severe Weather on mobile